createdAt,value
2023-02-05T00:01:45.096Z,7.63
2023-02-05T00:04:12.714Z,8.73
2023-02-05T00:06:40.981Z,5.03
2023-02-05T00:09:08.778Z,8.50
2023-02-05T00:11:36.509Z,11.60
2023-02-05T00:14:06.870Z,10.53
2023-02-05T00:16:35.524Z,7.83
2023-02-05T00:19:03.181Z,8.20
2023-02-05T00:21:30.985Z,5.50
2023-02-05T00:23:58.664Z,8.80
2023-02-05T00:26:26.459Z,10.03
2023-02-05T00:28:55.334Z,8.33
2023-02-05T00:31:24.917Z,12.43
2023-02-05T00:33:53.408Z,6.73
2023-02-05T00:36:23.128Z,7.80
2023-02-05T00:38:51.258Z,10.53
2023-02-05T00:41:19.872Z,10.23
2023-02-05T00:43:47.871Z,8.27
2023-02-05T00:46:15.949Z,6.20
2023-02-05T00:48:45.136Z,8.00
2023-02-05T00:51:13.181Z,5.50
2023-02-05T00:53:41.068Z,6.43
2023-02-05T00:56:08.784Z,5.60
2023-02-05T00:58:37.039Z,11.00
2023-02-05T01:01:05.099Z,7.43
2023-02-05T01:03:33.470Z,6.00
2023-02-05T01:06:03.589Z,6.10
2023-02-05T01:08:31.286Z,5.10
2023-02-05T01:10:59.497Z,6.90
2023-02-05T01:13:28.338Z,7.00
2023-02-05T01:15:56.058Z,9.33
2023-02-05T01:18:24.153Z,11.03
2023-02-05T01:20:51.939Z,7.73
2023-02-05T01:23:21.042Z,10.70
2023-02-05T01:25:49.013Z,8.60
2023-02-05T01:28:17.040Z,10.60
2023-02-05T01:30:47.878Z,8.77
2023-02-05T01:33:16.448Z,8.40
2023-02-05T01:35:44.952Z,10.70
2023-02-05T01:38:12.973Z,4.77
2023-02-05T01:40:42.433Z,9.63
2023-02-05T01:43:12.449Z,6.67
2023-02-05T01:46:01.810Z,6.03
2023-02-05T01:48:31.218Z,6.87
2023-02-05T01:51:00.401Z,7.40
2023-02-05T01:53:30.932Z,6.77
2023-02-05T01:56:05.008Z,7.80
2023-02-05T01:58:35.039Z,8.90
2023-02-05T02:01:02.958Z,12.87
2023-02-05T02:03:31.988Z,9.50
2023-02-05T02:08:46.692Z,7.90
2023-02-05T02:11:17.327Z,9.07
2023-02-05T02:13:45.493Z,8.40
2023-02-05T02:16:13.565Z,7.80
2023-02-05T02:18:41.615Z,6.50
2023-02-05T02:21:28.231Z,9.47
2023-02-05T02:24:05.380Z,7.73
2023-02-05T02:26:54.969Z,7.03
2023-02-05T02:29:28.359Z,7.70
2023-02-05T02:31:58.395Z,8.70
2023-02-05T02:34:28.232Z,14.40
2023-02-05T02:36:59.647Z,8.80
2023-02-05T02:39:30.830Z,10.10
2023-02-05T02:42:03.444Z,10.20
2023-02-05T02:44:34.709Z,10.40
2023-02-05T02:47:04.616Z,7.63
2023-02-05T02:49:35.105Z,11.17
2023-02-05T02:52:05.301Z,8.13
2023-02-05T02:54:34.051Z,12.17
2023-02-05T02:57:02.667Z,10.97
2023-02-05T02:59:31.975Z,11.00
2023-02-05T03:02:02.472Z,8.63
2023-02-05T03:04:32.310Z,14.37
2023-02-05T03:07:02.963Z,11.57
2023-02-05T03:09:33.318Z,9.57
2023-02-05T03:12:01.468Z,10.07
2023-02-05T03:14:29.595Z,10.07
2023-02-05T03:16:59.206Z,11.73
2023-02-05T03:19:29.557Z,12.20
2023-02-05T03:21:59.070Z,9.43
2023-02-05T03:24:27.570Z,12.00
2023-02-05T03:26:55.949Z,10.20
2023-02-05T03:29:27.510Z,8.93
2023-02-05T03:32:02.410Z,9.20
2023-02-05T03:34:40.291Z,9.50
2023-02-05T03:37:14.715Z,10.27
2023-02-05T03:39:47.555Z,11.47
2023-02-05T03:42:23.126Z,8.47
2023-02-05T03:45:19.213Z,8.33
2023-02-05T03:47:55.292Z,8.43
2023-02-05T03:50:29.634Z,8.60
2023-02-05T03:53:00.378Z,9.87
2023-02-05T03:55:30.211Z,9.90
2023-02-05T03:58:00.142Z,9.73
2023-02-05T04:00:29.469Z,8.53
2023-02-05T04:02:57.779Z,7.50
2023-02-05T04:05:32.222Z,8.00
2023-02-05T04:08:02.986Z,11.83
2023-02-05T04:10:36.175Z,6.70
2023-02-05T04:13:04.596Z,8.73
2023-02-05T04:15:34.060Z,7.97
2023-02-05T04:18:04.936Z,7.97
2023-02-05T04:20:34.268Z,7.13
2023-02-05T04:23:02.204Z,10.03
2023-02-05T04:25:33.316Z,13.70
2023-02-05T04:28:01.999Z,9.33
2023-02-05T04:30:30.643Z,5.77
2023-02-05T04:32:58.562Z,6.00
2023-02-05T04:35:26.469Z,8.10
2023-02-05T04:37:55.828Z,5.57
2023-02-05T04:40:24.383Z,6.73
2023-02-05T04:42:52.057Z,6.90
2023-02-05T04:45:19.951Z,7.80
2023-02-05T04:47:47.920Z,10.63
2023-02-05T04:50:15.800Z,10.10
2023-02-05T04:52:43.392Z,11.37
2023-02-05T04:55:13.083Z,12.10
2023-02-05T04:57:40.925Z,9.30
2023-02-05T05:00:09.331Z,10.07
2023-02-05T05:02:37.910Z,8.43
2023-02-05T05:05:06.919Z,11.03
2023-02-05T05:07:34.880Z,6.87
2023-02-05T05:10:02.447Z,9.47
2023-02-05T05:12:31.438Z,7.30
2023-02-05T05:14:59.027Z,6.97
2023-02-05T05:17:27.047Z,7.70
2023-02-05T05:19:54.700Z,9.00
2023-02-05T05:22:22.563Z,7.00
2023-02-05T05:24:50.213Z,9.10
2023-02-05T05:27:18.598Z,6.80
2023-02-05T05:29:47.565Z,7.90
2023-02-05T05:32:15.838Z,6.30
2023-02-05T05:34:43.516Z,7.57
2023-02-05T05:37:11.429Z,12.50
2023-02-05T05:39:56.862Z,11.90
2023-02-05T05:42:56.735Z,8.70
2023-02-05T05:45:25.840Z,9.50
2023-02-05T05:47:53.865Z,6.23
2023-02-05T05:50:21.747Z,7.10
2023-02-05T05:52:49.477Z,6.70
2023-02-05T05:55:17.348Z,8.20
2023-02-05T05:57:45.193Z,9.47
2023-02-05T06:00:13.677Z,10.00
2023-02-05T06:02:44.645Z,7.03
2023-02-05T06:05:12.421Z,8.10
2023-02-05T06:07:40.163Z,8.60
2023-02-05T06:10:08.347Z,6.27
2023-02-05T06:12:36.596Z,16.77
2023-02-05T06:15:04.420Z,15.93
2023-02-05T06:17:32.112Z,10.03
2023-02-05T06:20:01.196Z,12.83
2023-02-05T06:22:29.297Z,8.03
2023-02-05T06:24:56.864Z,9.50
2023-02-05T06:27:24.678Z,10.17
2023-02-05T06:29:52.608Z,9.87
2023-02-05T06:32:21.495Z,8.90
2023-02-05T06:34:49.373Z,8.53
2023-02-05T06:37:18.603Z,8.70
2023-02-05T06:39:46.409Z,8.17
2023-02-05T06:42:14.451Z,7.27
2023-02-05T06:44:42.325Z,7.67
2023-02-05T06:47:09.922Z,9.83
2023-02-05T06:49:37.587Z,8.93
2023-02-05T06:52:05.965Z,8.50
2023-02-05T06:54:35.483Z,8.10
2023-02-05T06:57:03.289Z,9.10
2023-02-05T06:59:31.401Z,7.77
2023-02-05T07:01:59.145Z,6.87
2023-02-05T07:04:28.206Z,9.70
2023-02-05T07:06:55.913Z,8.50
2023-02-05T07:09:23.626Z,10.37
2023-02-05T07:11:52.570Z,7.80
2023-02-05T07:14:20.481Z,16.63
2023-02-05T07:16:49.219Z,10.77
2023-02-05T07:19:16.944Z,9.67
2023-02-05T07:21:44.603Z,7.73
2023-02-05T07:24:14.260Z,9.10
2023-02-05T07:26:42.927Z,6.87
2023-02-05T07:29:12.105Z,8.87
2023-02-05T07:31:39.921Z,7.93
2023-02-05T07:34:07.826Z,7.30
2023-02-05T07:36:35.455Z,9.27
2023-02-05T07:39:03.557Z,8.80
2023-02-05T07:41:31.255Z,5.87
2023-02-05T07:43:59.336Z,8.03
2023-02-05T07:46:28.326Z,10.13
2023-02-05T07:48:56.316Z,6.60
2023-02-05T07:51:25.383Z,5.90
2023-02-05T07:53:55.352Z,6.90
2023-02-05T07:56:23.129Z,6.70
2023-02-05T07:58:51.128Z,7.47
2023-02-05T08:01:19.195Z,7.53
2023-02-05T08:03:48.242Z,12.10
2023-02-05T08:06:16.518Z,9.47
2023-02-05T08:08:44.194Z,7.00
2023-02-05T08:11:14.647Z,8.23
2023-02-05T08:13:43.095Z,12.17
2023-02-05T08:16:11.374Z,7.77
2023-02-05T08:18:39.561Z,9.80
2023-02-05T08:21:08.832Z,11.30
2023-02-05T08:23:36.514Z,11.93
2023-02-05T08:26:04.656Z,10.23
2023-02-05T08:28:32.632Z,9.63
2023-02-05T08:31:00.340Z,12.30
2023-02-05T08:33:28.430Z,9.33
2023-02-05T08:35:56.152Z,9.70
2023-02-05T08:38:25.179Z,8.70
2023-02-05T08:40:52.932Z,8.73
2023-02-05T08:43:21.477Z,11.23
2023-02-05T08:45:49.176Z,13.03
2023-02-05T08:48:16.992Z,8.13
2023-02-05T08:50:46.069Z,12.10
2023-02-05T08:53:14.005Z,8.30
2023-02-05T08:55:43.005Z,7.90
2023-02-05T08:58:11.058Z,10.07
2023-02-05T09:00:39.998Z,8.37
2023-02-05T09:03:08.723Z,8.63
2023-02-05T09:05:36.566Z,9.17
2023-02-05T09:08:04.341Z,13.80
2023-02-05T09:10:32.349Z,7.20
2023-02-05T09:13:01.317Z,7.80
2023-02-05T09:15:29.099Z,14.27
2023-02-05T09:17:56.965Z,9.17
2023-02-05T09:20:24.718Z,8.03
2023-02-05T09:22:54.086Z,8.97
2023-02-05T09:25:21.791Z,11.73
2023-02-05T09:27:49.441Z,11.53
2023-02-05T09:30:19.063Z,8.43
2023-02-05T09:32:46.679Z,6.33
2023-02-05T09:35:14.349Z,9.40
2023-02-05T09:37:44.301Z,7.17
2023-02-05T09:40:21.011Z,8.70
2023-02-05T09:42:54.416Z,13.83
2023-02-05T09:45:28.986Z,7.10
2023-02-05T09:48:02.072Z,7.70
2023-02-05T09:50:30.231Z,7.70
2023-02-05T09:53:00.735Z,7.47
2023-02-05T09:55:30.156Z,9.90
2023-02-05T09:58:01.194Z,15.03
2023-02-05T10:00:32.129Z,11.70
2023-02-05T10:03:06.456Z,13.33
2023-02-05T10:05:37.098Z,11.07
2023-02-05T10:08:08.823Z,11.17
2023-02-05T10:10:41.126Z,8.23
2023-02-05T10:13:26.937Z,15.83
2023-02-05T10:16:04.476Z,10.70
2023-02-05T10:18:35.768Z,10.43
2023-02-05T10:21:07.365Z,9.20
2023-02-05T10:23:46.185Z,11.43
2023-02-05T10:26:14.947Z,10.83
2023-02-05T10:28:58.537Z,6.80
2023-02-05T10:31:37.130Z,8.33
2023-02-05T10:34:12.497Z,16.10
2023-02-05T10:36:40.527Z,12.73
2023-02-05T10:39:14.111Z,7.40
2023-02-05T10:41:44.264Z,7.53
2023-02-05T10:44:14.930Z,9.50
2023-02-05T10:46:51.809Z,6.60
2023-02-05T10:49:22.796Z,5.57
2023-02-05T10:51:51.011Z,7.70
2023-02-05T10:54:21.014Z,6.40
2023-02-05T10:56:49.097Z,5.90
2023-02-05T10:59:21.391Z,5.73
2023-02-05T11:01:51.207Z,8.50
2023-02-05T11:04:21.009Z,5.60
2023-02-05T11:06:50.314Z,5.57
2023-02-05T11:09:32.152Z,4.57
2023-02-05T11:12:01.116Z,6.93
2023-02-05T11:14:32.419Z,5.50
2023-02-05T11:17:05.576Z,7.80
2023-02-05T11:19:33.969Z,4.87
2023-02-05T11:22:02.585Z,6.13
2023-02-05T11:24:31.388Z,7.93
2023-02-05T11:27:25.070Z,4.97
2023-02-05T11:29:52.858Z,4.23
2023-02-05T11:32:22.963Z,7.17
2023-02-05T11:34:50.868Z,7.77
2023-02-05T11:37:19.476Z,7.30
2023-02-05T11:39:53.927Z,5.33
2023-02-05T11:42:23.482Z,5.63
2023-02-05T11:44:53.814Z,6.30
2023-02-05T11:47:27.665Z,7.10
2023-02-05T11:49:56.728Z,6.87
2023-02-05T11:52:27.470Z,5.60
2023-02-05T11:54:55.429Z,6.93
2023-02-05T11:57:32.518Z,8.70
2023-02-05T12:00:00.800Z,6.93
2023-02-05T12:02:34.596Z,10.30
2023-02-05T12:05:07.422Z,5.73
2023-02-05T12:07:37.754Z,5.10
2023-02-05T12:10:05.751Z,8.40
2023-02-05T12:12:35.486Z,4.60
2023-02-05T12:15:09.645Z,5.77
2023-02-05T12:17:41.514Z,7.47
2023-02-05T12:20:16.833Z,6.37
2023-02-05T12:22:52.245Z,9.80
2023-02-05T12:25:24.995Z,6.20
2023-02-05T12:27:58.296Z,5.60
2023-02-05T12:30:32.289Z,6.30
2023-02-05T12:33:10.239Z,6.73
2023-02-05T12:35:44.722Z,7.33
2023-02-05T12:38:31.530Z,5.70
2023-02-05T12:41:07.548Z,5.00
2023-02-05T12:43:38.597Z,4.10
2023-02-05T12:46:14.313Z,6.23
2023-02-05T12:48:48.811Z,4.70
2023-02-05T12:51:28.910Z,5.87
2023-02-05T12:54:05.816Z,7.07
2023-02-05T12:56:40.439Z,5.57
2023-02-05T12:59:12.908Z,5.67
2023-02-05T13:01:43.414Z,8.50
2023-02-05T13:04:20.113Z,7.20
2023-02-05T13:06:51.227Z,8.00
2023-02-05T13:09:20.393Z,7.40
2023-02-05T13:11:52.308Z,5.17
2023-02-05T13:14:22.080Z,5.93
2023-02-05T13:16:52.217Z,7.60
2023-02-05T13:19:26.373Z,5.00
2023-02-05T13:22:13.102Z,5.67
2023-02-05T13:25:00.298Z,6.43
2023-02-05T13:27:47.675Z,6.53
2023-02-05T13:30:18.069Z,7.47
2023-02-05T13:32:48.443Z,8.30
2023-02-05T13:35:18.175Z,7.33
2023-02-05T13:37:52.764Z,5.87
2023-02-05T13:40:32.352Z,9.63
2023-02-05T13:43:07.899Z,6.23
2023-02-05T13:46:00.665Z,8.83
2023-02-05T13:48:44.906Z,5.57
2023-02-05T13:51:30.718Z,6.23
2023-02-05T13:54:04.292Z,8.10
2023-02-05T13:56:38.535Z,6.47
2023-02-05T13:59:08.474Z,7.97
2023-02-05T14:01:40.383Z,4.30
2023-02-05T14:04:09.716Z,7.23
2023-02-05T14:06:38.342Z,8.80
2023-02-05T14:09:08.955Z,6.10
2023-02-05T14:11:50.401Z,4.57
2023-02-05T14:14:23.124Z,6.27
2023-02-05T14:16:52.454Z,7.13
2023-02-05T14:19:23.123Z,5.63
2023-02-05T14:21:59.091Z,6.20
2023-02-05T14:24:29.597Z,6.20
2023-02-05T14:27:00.279Z,5.50
2023-02-05T14:29:41.252Z,5.40
2023-02-05T14:32:10.845Z,6.40
2023-02-05T14:34:47.093Z,6.00
2023-02-05T14:37:36.299Z,6.13
2023-02-05T14:40:22.575Z,7.83
2023-02-05T14:42:53.273Z,5.77
2023-02-05T14:45:23.230Z,6.80
2023-02-05T14:47:51.268Z,5.40
2023-02-05T14:50:22.735Z,5.50
2023-02-05T14:52:53.987Z,8.60
2023-02-05T14:55:28.846Z,4.00
2023-02-05T14:57:59.300Z,3.97
2023-02-05T15:00:28.909Z,6.70
2023-02-05T15:03:04.961Z,8.57
2023-02-05T15:05:35.780Z,10.03
2023-02-05T15:08:08.991Z,6.87
2023-02-05T15:10:45.471Z,7.27
2023-02-05T15:13:14.880Z,6.43
2023-02-05T15:15:42.916Z,5.30
2023-02-05T15:18:16.794Z,4.20
2023-02-05T15:20:47.361Z,7.10
2023-02-05T15:23:21.830Z,5.30
2023-02-05T15:25:56.441Z,6.50
2023-02-05T15:28:29.491Z,4.33
2023-02-05T15:31:15.428Z,4.03
2023-02-05T15:33:46.290Z,5.60
2023-02-05T15:36:18.875Z,3.80
2023-02-05T15:38:49.523Z,4.23
2023-02-05T15:41:20.816Z,5.07
2023-02-05T15:44:00.204Z,4.53
2023-02-05T15:46:28.450Z,6.60
2023-02-05T15:48:56.748Z,6.50
2023-02-05T15:51:28.072Z,6.80
2023-02-05T15:53:57.195Z,7.13
2023-02-05T15:56:29.398Z,8.00
2023-02-05T15:58:59.843Z,5.63
2023-02-05T16:01:29.978Z,5.77
2023-02-05T16:03:58.330Z,7.13
2023-02-05T16:06:27.064Z,6.30
2023-02-05T16:08:55.539Z,5.00
2023-02-05T16:11:28.757Z,7.17
2023-02-05T16:14:06.712Z,5.80
2023-02-05T16:16:36.641Z,8.23
2023-02-05T16:19:05.984Z,4.73
2023-02-05T16:21:34.778Z,10.10
2023-02-05T16:24:03.847Z,7.33
2023-02-05T16:26:37.218Z,9.97
2023-02-05T16:29:07.771Z,5.90
2023-02-05T16:31:38.432Z,11.93
2023-02-05T16:34:08.188Z,8.63
2023-02-05T16:36:38.201Z,9.23
2023-02-05T16:39:08.417Z,9.53
2023-02-05T16:41:38.787Z,11.73
2023-02-05T16:44:07.610Z,12.00
2023-02-05T16:46:36.216Z,12.17
2023-02-05T16:49:05.792Z,13.17
2023-02-05T16:51:54.259Z,15.70
2023-02-05T16:54:30.084Z,12.40
2023-02-05T16:57:04.692Z,14.97
2023-02-05T16:59:34.682Z,11.63
2023-02-05T17:02:03.436Z,10.13
2023-02-05T17:04:35.166Z,11.00
2023-02-05T17:07:03.874Z,10.87
2023-02-05T17:09:32.817Z,11.90
2023-02-05T17:12:19.179Z,11.40
2023-02-05T17:14:54.624Z,30.87
2023-02-05T17:17:22.701Z,16.87
2023-02-05T17:20:04.269Z,15.60
2023-02-05T17:22:34.477Z,15.90
2023-02-05T17:25:02.351Z,18.63
2023-02-05T17:27:31.228Z,18.57
2023-02-05T17:30:00.921Z,16.10
2023-02-05T17:32:29.915Z,13.60
2023-02-05T17:34:57.536Z,14.20
2023-02-05T17:37:25.228Z,14.20
2023-02-05T17:39:53.833Z,17.27
2023-02-05T17:42:22.743Z,15.67
2023-02-05T17:44:50.664Z,14.40
2023-02-05T17:47:20.067Z,15.30
2023-02-05T17:49:48.774Z,17.37
2023-02-05T17:52:17.002Z,12.47
2023-02-05T17:54:45.551Z,15.40
2023-02-05T17:57:16.326Z,19.73
2023-02-05T17:59:45.005Z,18.23
2023-02-05T18:02:12.958Z,18.97
2023-02-05T18:04:43.511Z,18.97
2023-02-05T18:07:19.366Z,18.37
2023-02-05T18:09:47.298Z,15.90
2023-02-05T18:12:14.893Z,19.67
2023-02-05T18:14:42.864Z,19.57
2023-02-05T18:17:10.530Z,14.40
2023-02-05T18:19:38.780Z,17.93
2023-02-05T18:22:08.448Z,21.00
2023-02-05T18:24:37.164Z,18.47
2023-02-05T18:27:07.600Z,20.80
2023-02-05T18:29:35.956Z,19.73
2023-02-05T18:32:03.819Z,18.60
2023-02-05T18:34:31.686Z,18.80
2023-02-05T18:37:00.002Z,17.17
2023-02-05T18:39:29.494Z,12.90
2023-02-05T18:41:57.448Z,16.60
2023-02-05T18:44:25.319Z,16.07
2023-02-05T18:46:53.869Z,15.17
2023-02-05T18:49:21.689Z,18.23
2023-02-05T18:51:49.369Z,16.00
2023-02-05T18:54:17.396Z,19.53
2023-02-05T18:56:47.923Z,16.80
2023-02-05T18:59:17.973Z,20.20
2023-02-05T19:01:45.654Z,19.30
2023-02-05T19:04:14.235Z,20.40
2023-02-05T19:06:42.163Z,19.87
2023-02-05T19:09:09.915Z,16.60
2023-02-05T19:11:40.891Z,14.53
2023-02-05T19:14:12.983Z,19.03
2023-02-05T19:16:42.704Z,19.37
2023-02-05T19:19:11.511Z,17.60
2023-02-05T19:21:39.689Z,14.50
2023-02-05T19:24:09.693Z,24.30
2023-02-05T19:26:38.379Z,17.37
2023-02-05T19:29:07.132Z,24.33
2023-02-05T19:31:37.127Z,18.13
2023-02-05T19:34:05.299Z,18.73
2023-02-05T19:36:33.249Z,16.60
2023-02-05T19:39:01.661Z,16.10
2023-02-05T19:41:30.057Z,20.33
2023-02-05T19:43:58.639Z,19.30
2023-02-05T19:46:27.965Z,19.77
2023-02-05T19:48:57.525Z,19.10
2023-02-05T19:51:25.158Z,19.80
2023-02-05T19:53:56.578Z,17.23
2023-02-05T19:56:26.830Z,19.33
2023-02-05T19:58:55.540Z,17.90
2023-02-05T20:01:25.295Z,21.27
2023-02-05T20:03:53.787Z,17.50
2023-02-05T20:06:23.433Z,18.20
2023-02-05T20:08:51.429Z,16.20
2023-02-05T20:11:19.202Z,16.70
2023-02-05T20:13:47.606Z,20.00
2023-02-05T20:16:18.338Z,20.63
2023-02-05T20:18:49.188Z,18.57
2023-02-05T20:21:18.900Z,19.97
2023-02-05T20:23:48.350Z,19.73
2023-02-05T20:26:19.111Z,19.77
2023-02-05T20:29:05.386Z,21.93
2023-02-05T20:31:35.554Z,22.87
2023-02-05T20:34:03.896Z,21.73
2023-02-05T20:36:32.034Z,17.90
2023-02-05T20:39:02.232Z,27.90
2023-02-05T20:41:30.019Z,26.27
2023-02-05T20:43:57.681Z,21.40
2023-02-05T20:46:26.044Z,19.53
2023-02-05T20:48:53.803Z,21.03
2023-02-05T20:51:23.067Z,27.17
2023-02-05T20:53:52.132Z,19.87
2023-02-05T20:56:21.518Z,17.20
2023-02-05T20:58:49.379Z,25.80
2023-02-05T21:01:18.195Z,27.00
2023-02-05T21:03:46.947Z,23.50
2023-02-05T21:06:15.377Z,24.53
2023-02-05T21:08:46.032Z,29.77
2023-02-05T21:11:15.351Z,28.20
2023-02-05T21:13:45.306Z,23.77
2023-02-05T21:16:13.595Z,28.30
2023-02-05T21:18:41.858Z,25.50
2023-02-05T21:21:11.130Z,24.10
2023-02-05T21:23:39.433Z,23.67
2023-02-05T21:26:10.261Z,19.97
2023-02-05T21:28:37.982Z,24.20
2023-02-05T21:31:08.435Z,19.20
2023-02-05T21:33:36.350Z,20.17
2023-02-05T21:36:04.333Z,25.60
2023-02-05T21:38:35.168Z,26.87
2023-02-05T21:41:06.848Z,20.60
2023-02-05T21:43:34.684Z,27.10
2023-02-05T21:46:02.895Z,23.70
2023-02-05T21:48:33.932Z,21.70
2023-02-05T21:51:05.819Z,23.80
2023-02-05T21:53:33.760Z,33.73
2023-02-05T21:56:01.637Z,31.43
2023-02-05T21:58:31.665Z,32.90
2023-02-05T22:01:09.025Z,27.30
2023-02-05T22:03:38.323Z,21.53
2023-02-05T22:06:07.432Z,20.60
2023-02-05T22:08:35.263Z,20.00
2023-02-05T22:11:03.868Z,16.70
2023-02-05T22:13:33.010Z,16.20
2023-02-05T22:16:06.261Z,16.67
2023-02-05T22:18:34.859Z,15.00
2023-02-05T22:21:08.069Z,19.57
2023-02-05T22:23:36.029Z,14.90
2023-02-05T22:26:03.792Z,24.10
2023-02-05T22:28:32.395Z,20.43
2023-02-05T22:31:01.356Z,20.50
2023-02-05T22:33:29.726Z,29.03
2023-02-05T22:35:57.827Z,24.23
2023-02-05T22:38:27.299Z,18.70
2023-02-05T22:40:54.949Z,19.97
2023-02-05T22:43:22.675Z,15.37
2023-02-05T22:45:52.477Z,19.40
2023-02-05T22:48:20.587Z,17.27
2023-02-05T22:50:48.448Z,20.60
2023-02-05T22:53:16.437Z,15.87
2023-02-05T22:55:45.753Z,18.00
2023-02-05T22:58:13.693Z,19.27
2023-02-05T23:00:41.601Z,16.93
2023-02-05T23:03:09.529Z,20.93
2023-02-05T23:05:37.881Z,22.30
2023-02-05T23:08:06.491Z,25.13
2023-02-05T23:10:34.681Z,23.60
2023-02-05T23:13:04.326Z,25.63
2023-02-05T23:15:32.894Z,23.10
2023-02-05T23:18:01.093Z,23.60
2023-02-05T23:20:29.232Z,22.00
2023-02-05T23:22:57.540Z,24.40
2023-02-05T23:25:25.553Z,23.10
2023-02-05T23:27:53.580Z,26.07
2023-02-05T23:30:23.255Z,29.40
2023-02-05T23:32:51.472Z,25.70
2023-02-05T23:38:11.033Z,23.50
2023-02-05T23:40:38.906Z,26.13
2023-02-05T23:43:06.692Z,26.20
2023-02-05T23:45:35.995Z,26.03
2023-02-05T23:48:04.626Z,26.27
2023-02-05T23:50:32.733Z,25.87
2023-02-05T23:53:00.460Z,28.43
2023-02-05T23:55:28.184Z,28.40
2023-02-05T23:57:55.800Z,27.97
